Time;durP1;ratioP1;P1;durP2;ratioP2;P2;SDS_P1;SDS_P2;PMS_P1;PMS_P2;Temp;Humidity;BMP_temperature;BMP_pressure;BME280_temperature;BME280_humidity;BME280_pressure;Samples;Min_cycle;Max_cycle;Signal;HPM_P1;HPM_P2
2022/10/08 00:00:17;;;;;;;3.15;1.35;;;;;;;-145.48;100.00;64539.38;6043739;29;20053;-86
2022/10/08 00:04:18;;;;;;;3.70;1.60;;;;;;;-145.48;100.00;64539.38;6035769;29;20050;-86
2022/10/08 00:08:19;;;;;;;4.10;1.67;;;;;;;-145.48;100.00;64539.38;6043745;29;20041;-87
2022/10/08 00:12:21;;;;;;;2.60;1.20;;;;;;;-145.48;100.00;64539.38;6043508;29;20212;-87
2022/10/08 00:16:21;;;;;;;4.30;1.30;;;;;;;-145.48;100.00;64539.38;6045587;29;20365;-86
2022/10/08 00:20:21;;;;;;;2.53;1.30;;;;;;;-145.48;100.00;64539.38;6038803;29;20080;-87
2022/10/08 00:24:22;;;;;;;4.63;1.35;;;;;;;-145.48;100.00;64539.38;6037363;29;20156;-87
2022/10/08 00:28:22;;;;;;;3.50;1.38;;;;;;;-145.48;100.00;64539.38;6049818;29;20484;-87
2022/10/08 00:32:33;;;;;;;5.40;1.30;;;;;;;-145.48;100.00;64539.38;6038536;29;20501;-87
2022/10/08 00:36:38;;;;;;;3.40;1.60;;;;;;;-145.48;100.00;64539.38;6038988;29;20085;-87
2022/10/08 00:40:44;;;;;;;2.53;1.30;;;;;;;-145.48;100.00;64539.38;6039396;29;20484;-87
2022/10/08 00:44:53;;;;;;;3.00;1.50;;;;;;;-145.48;100.00;64539.38;6050756;29;20033;-86
2022/10/08 00:49:14;;;;;;;7.57;1.90;;;;;;;-145.48;100.00;64539.38;6039302;29;20263;-87
2022/10/08 00:53:15;;;;;;;4.00;1.67;;;;;;;-145.48;100.00;64539.38;6037792;29;20140;-86
2022/10/08 00:57:15;;;;;;;;;;;;;;;-145.48;100.00;64539.38;6046591;29;20049;-87
2022/10/08 01:01:18;;;;;;;3.42;1.40;;;;;;;-145.48;100.00;64539.38;6036500;29;20600;-86
2022/10/08 01:05:26;;;;;;;11.93;2.03;;;;;;;-145.48;100.00;64539.38;6045091;29;20048;-87
2022/10/08 01:09:50;;;;;;;4.63;1.50;;;;;;;-145.48;100.00;64539.38;6036798;29;20423;-87
2022/10/08 01:14:33;;;;;;;3.35;1.30;;;;;;;-145.48;100.00;64539.38;6056909;29;20414;-86
2022/10/08 01:19:00;;;;;;;3.15;1.48;;;;;;;-145.48;100.00;64539.38;6054224;29;20049;-86
2022/10/08 01:23:19;;;;;;;4.43;1.40;;;;;;;-145.48;100.00;64539.38;6055783;29;20404;-87
2022/10/08 01:27:45;;;;;;;6.93;1.75;;;;;;;-145.48;100.00;64539.38;6037622;29;20045;-87
2022/10/08 01:32:16;;;;;;;4.15;1.38;;;;;;;-145.48;100.00;64539.38;6043620;29;20045;-87
2022/10/08 01:36:25;;;;;;;3.65;1.55;;;;;;;-145.48;100.00;64539.38;6037961;29;20083;-86
2022/10/08 01:40:31;;;;;;;6.38;1.50;;;;;;;-145.48;100.00;64539.38;6050146;29;20055;-87
2022/10/08 01:44:48;;;;;;;3.78;1.48;;;;;;;-145.48;100.00;64539.38;6035968;29;20044;-87
2022/10/08 01:48:50;;;;;;;6.03;1.90;;;;;;;-145.48;100.00;64539.38;6044670;29;20049;-87
2022/10/08 01:53:20;;;;;;;6.47;1.92;;;;;;;-145.48;100.00;64539.38;6056941;29;20463;-87
2022/10/08 01:57:23;;;;;;;5.32;1.70;;;;;;;-145.48;100.00;64539.38;6050172;29;20393;-87
2022/10/08 02:01:33;;;;;;;8.27;1.83;;;;;;;-145.48;100.00;64539.38;6043182;29;20436;-87
2022/10/08 02:05:36;;;;;;;3.67;1.63;;;;;;;-145.48;100.00;64539.38;6038316;29;20477;-87
2022/10/08 02:09:40;;;;;;;6.28;2.00;;;;;;;-145.48;100.00;64539.38;6049441;29;20048;-86
2022/10/08 02:13:42;;;;;;;10.32;1.98;;;;;;;-145.48;100.00;64539.38;6043817;29;20120;-86
2022/10/08 02:18:23;;;;;;;8.75;1.92;;;;;;;-145.48;100.00;64539.38;6041737;29;20658;-87
2022/10/08 02:22:36;;;;;;;12.90;2.60;;;;;;;-145.48;100.00;64539.38;5989868;29;20085;-87
2022/10/08 02:26:45;;;;;;;6.78;2.20;;;;;;;-145.48;100.00;64539.38;5992433;29;20065;-87
2022/10/08 02:30:54;;;;;;;5.50;2.00;;;;;;;-145.48;100.00;64539.38;5993510;29;20102;-87
2022/10/08 02:34:58;;;;;;;12.25;2.63;;;;;;;-145.48;100.00;64539.38;5998637;29;20406;-87
2022/10/08 02:39:03;;;;;;;6.53;2.00;;;;;;;-145.48;100.00;64539.38;5992295;29;20050;-87
2022/10/08 02:43:10;;;;;;;8.27;1.90;;;;;;;-145.48;100.00;64539.38;5993696;29;20077;-87
2022/10/08 02:47:19;;;;;;;8.27;2.10;;;;;;;-145.48;100.00;64539.38;5976157;29;20424;-87
2022/10/08 02:51:23;;;;;;;7.28;1.88;;;;;;;-145.48;100.00;64539.38;5987489;29;20057;-87
2022/10/08 02:55:30;;;;;;;8.57;2.58;;;;;;;-145.48;100.00;64539.38;6003532;29;20492;-87
2022/10/08 02:59:32;;;;;;;7.55;2.08;;;;;;;-145.48;100.00;64539.38;6034359;29;20042;-86
2022/10/08 03:03:38;;;;;;;6.75;1.92;;;;;;;-145.48;100.00;64539.38;6035981;29;20037;-87
2022/10/08 03:07:38;;;;;;;7.95;2.00;;;;;;;-145.48;100.00;64539.38;6042007;29;20041;-87
2022/10/08 03:11:41;;;;;;;13.13;2.38;;;;;;;-145.48;100.00;64539.38;6046636;29;20517;-87
2022/10/08 03:15:45;;;;;;;6.80;1.73;;;;;;;-145.48;100.00;64539.38;6038045;29;20299;-87
2022/10/08 03:19:46;;;;;;;8.38;2.47;;;;;;;-145.48;100.00;64539.38;6049341;29;20461;-87
2022/10/08 03:23:46;;;;;;;11.60;2.53;;;;;;;-145.48;100.00;64539.38;6056757;29;20049;-87
2022/10/08 03:27:48;;;;;;;3.13;1.73;;;;;;;-145.48;100.00;64539.38;6034633;29;20467;-87
2022/10/08 03:31:49;;;;;;;9.55;2.40;;;;;;;-145.48;100.00;64539.38;6042476;29;20300;-87
2022/10/08 03:35:49;;;;;;;12.88;2.30;;;;;;;-145.48;100.00;64539.38;6035705;29;20448;-87
2022/10/08 03:39:49;;;;;;;7.83;2.30;;;;;;;-145.48;100.00;64539.38;6039687;29;20516;-87
2022/10/08 03:43:50;;;;;;;5.60;2.00;;;;;;;-145.48;100.00;64539.38;6038163;29;20300;-87
2022/10/08 03:47:51;;;;;;;8.13;2.17;;;;;;;-145.48;100.00;64539.38;6039970;29;20489;-87
2022/10/08 03:51:53;;;;;;;10.00;2.03;;;;;;;-145.48;100.00;64539.38;6036831;29;20486;-87
2022/10/08 03:55:55;;;;;;;4.40;1.88;;;;;;;-145.48;100.00;64539.38;6040495;29;20048;-87
2022/10/08 03:59:56;;;;;;;6.90;1.95;;;;;;;-145.48;100.00;64539.38;6046837;29;20052;-87
2022/10/08 04:03:56;;;;;;;6.80;2.20;;;;;;;-145.48;100.00;64539.38;6052029;29;20512;-87
2022/10/08 04:07:56;;;;;;;7.15;1.88;;;;;;;-145.48;100.00;64539.38;6034408;29;20055;-87
2022/10/08 04:11:59;;;;;;;6.05;2.13;;;;;;;-145.48;100.00;64539.38;6043685;29;20128;-87
2022/10/08 04:16:26;;;;;;;6.38;2.10;;;;;;;-145.48;100.00;64539.38;6029938;29;20112;-87
2022/10/08 04:20:26;;;;;;;5.55;2.50;;;;;;;-145.48;100.00;64539.38;6034187;29;20567;-87
2022/10/08 04:24:28;;;;;;;5.78;2.03;;;;;;;-145.48;100.00;64539.38;6041852;29;20247;-87
2022/10/08 04:28:28;;;;;;;9.63;2.13;;;;;;;-145.48;100.00;64539.38;6039405;29;20066;-87
2022/10/08 04:32:28;;;;;;;9.60;3.20;;;;;;;-145.48;100.00;64539.38;6041007;29;20332;-87
2022/10/08 04:36:29;;;;;;;9.38;2.53;;;;;;;-145.48;100.00;64539.38;6039593;29;20621;-87
2022/10/08 04:40:29;;;;;;;8.55;2.58;;;;;;;-145.48;100.00;64539.38;6047963;29;20037;-87
2022/10/08 04:44:29;;;;;;;6.75;2.53;;;;;;;-145.48;100.00;64539.38;6038212;29;20057;-87
2022/10/08 04:48:30;;;;;;;6.67;2.77;;;;;;;-145.48;100.00;64539.38;6047704;29;20061;-87
2022/10/08 04:52:30;;;;;;;8.45;3.28;;;;;;;-145.48;100.00;64539.38;6046302;29;20487;-87
2022/10/08 04:56:33;;;;;;;9.60;3.13;;;;;;;-145.48;100.00;64539.38;6047466;29;20328;-87
2022/10/08 05:00:34;;;;;;;9.93;3.00;;;;;;;-145.48;100.00;64539.38;6047204;29;20041;-87
2022/10/08 05:04:38;;;;;;;12.88;2.92;;;;;;;-145.48;100.00;64539.38;6034476;29;20476;-87
2022/10/08 05:08:39;;;;;;;9.90;4.28;;;;;;;-145.48;100.00;64539.38;6034969;29;20048;-87
2022/10/08 05:12:39;;;;;;;8.93;3.25;;;;;;;-145.48;100.00;64539.38;6045697;29;20040;-88
2022/10/08 05:16:39;;;;;;;10.57;4.13;;;;;;;-145.48;100.00;64539.38;6036739;29;20045;-87
2022/10/08 05:20:39;;;;;;;9.37;4.83;;;;;;;-145.48;100.00;64539.38;6032134;29;20355;-87
2022/10/08 05:24:40;;;;;;;15.07;5.55;;;;;;;-145.48;100.00;64539.38;6047003;29;20240;-87
2022/10/08 05:28:40;;;;;;;12.00;6.28;;;;;;;-145.48;100.00;64539.38;6044353;29;20044;-88
2022/10/08 05:32:41;;;;;;;13.15;6.03;;;;;;;-145.48;100.00;64539.38;6045345;29;20073;-87
2022/10/08 05:36:42;;;;;;;18.23;7.03;;;;;;;-145.48;100.00;64539.38;6037619;29;20464;-88
2022/10/08 05:40:43;;;;;;;16.23;6.05;;;;;;;-145.48;100.00;64539.38;6046329;29;20056;-88
2022/10/08 05:44:43;;;;;;;11.93;6.43;;;;;;;-145.48;100.00;64539.38;6037443;29;20053;-87
2022/10/08 05:48:44;;;;;;;;;;;;;;;-145.48;100.00;64539.38;6040664;29;20049;-87
2022/10/08 05:52:45;;;;;;;16.80;7.63;;;;;;;-145.48;100.00;64539.38;6066964;29;20303;-87
2022/10/08 05:56:45;;;;;;;;;;;;;;;-145.48;100.00;64539.38;6042521;29;20048;-87
2022/10/08 06:00:55;;;;;;;15.90;8.57;;;;;;;-145.48;100.00;64539.38;6045363;29;19974;-88
2022/10/08 06:04:56;;;;;;;16.60;8.35;;;;;;;-145.48;100.00;64539.38;6031092;29;20050;-87
2022/10/08 06:08:58;;;;;;;22.23;9.80;;;;;;;-145.48;100.00;64539.38;6045707;29;20037;-87
2022/10/08 06:12:58;;;;;;;20.60;9.52;;;;;;;-145.48;100.00;64539.38;6046261;29;20529;-87
2022/10/08 06:17:08;;;;;;;14.70;9.27;;;;;;;-145.48;100.00;64539.38;6045682;29;20059;-87
2022/10/08 06:21:10;;;;;;;14.40;8.93;;;;;;;-145.48;100.00;64539.38;6049819;29;20053;-87
2022/10/08 06:25:10;;;;;;;21.45;11.00;;;;;;;-145.48;100.00;64539.38;6044643;29;20056;-87
2022/10/08 06:29:13;;;;;;;20.37;9.93;;;;;;;-145.48;100.00;64539.38;6038482;29;20515;-87
2022/10/08 06:33:15;;;;;;;12.82;9.13;;;;;;;-145.48;100.00;64539.38;6034239;29;20037;-87
2022/10/08 06:37:19;;;;;;;14.65;8.35;;;;;;;-145.48;100.00;64539.38;6036118;29;20357;-87
2022/10/08 06:41:20;;;;;;;16.88;7.93;;;;;;;-145.48;100.00;64539.38;6032500;29;20053;-87
2022/10/08 06:45:20;;;;;;;10.95;7.47;;;;;;;-145.48;100.00;64539.38;6025546;29;20132;-87
2022/10/08 06:49:25;;;;;;;19.03;8.10;;;;;;;-145.48;100.00;64539.38;6040813;29;20056;-87
2022/10/08 06:53:27;;;;;;;16.10;6.63;;;;;;;-145.48;100.00;64539.38;6039046;29;20097;-87
2022/10/08 06:57:28;;;;;;;11.65;6.55;;;;;;;-145.48;100.00;64539.38;6040395;29;20507;-87
2022/10/08 07:01:28;;;;;;;;;;;;;;;-145.48;100.00;64539.38;6045074;29;20052;-87
2022/10/08 07:05:33;;;;;;;12.32;6.35;;;;;;;-145.48;100.00;64539.38;6048682;29;21736;-88
2022/10/08 07:09:34;;;;;;;16.23;6.20;;;;;;;-145.48;100.00;64539.38;6041978;29;20037;-88
2022/10/08 07:13:35;;;;;;;15.27;6.05;;;;;;;-145.48;100.00;64539.38;6041212;29;20167;-88
2022/10/08 07:17:35;;;;;;;;;;;;;;;-145.48;100.00;64539.38;6044836;29;20049;-87
2022/10/08 07:21:36;;;;;;;8.90;6.00;;;;;;;-145.48;100.00;64539.38;6038922;29;20006;-87
2022/10/08 07:25:36;;;;;;;11.43;6.40;;;;;;;-145.48;100.00;64539.38;6038514;29;20041;-87
2022/10/08 07:29:37;;;;;;;14.10;6.53;;;;;;;-145.48;100.00;64539.38;6047752;29;20181;-87
2022/10/08 07:33:39;;;;;;;;;;;;;;;-145.48;100.00;64539.38;6035125;29;20048;-88
2022/10/08 07:37:45;;;;;;;8.13;5.65;;;;;;;-145.48;100.00;64539.38;6038005;29;19928;-88
2022/10/08 07:41:46;;;;;;;10.77;4.53;;;;;;;-145.48;100.00;64539.38;6041742;29;20034;-88
2022/10/08 07:45:46;;;;;;;11.38;4.72;;;;;;;-145.48;100.00;64539.38;6036808;29;20052;-88
2022/10/08 07:49:47;;;;;;;10.60;5.43;;;;;;;-145.48;100.00;64539.38;6049369;29;20055;-88
2022/10/08 07:53:48;;;;;;;11.93;4.45;;;;;;;-145.48;100.00;64539.38;6039866;29;20049;-88
2022/10/08 07:57:49;;;;;;;9.20;4.38;;;;;;;-145.48;100.00;64539.38;6050708;29;20056;-88
2022/10/08 08:01:54;;;;;;;7.25;4.60;;;;;;;-145.48;100.00;64539.38;6041578;29;20579;-87
2022/10/08 08:05:59;;;;;;;9.73;4.57;;;;;;;-145.48;100.00;64539.38;6028666;29;20072;-88
2022/10/08 08:09:59;;;;;;;8.77;5.00;;;;;;;-145.48;100.00;64539.38;6035678;29;20037;-87
2022/10/08 08:14:00;;;;;;;7.90;5.53;;;;;;;-145.48;100.00;64539.38;6036870;29;20045;-87
2022/10/08 08:18:00;;;;;;;11.65;4.78;;;;;;;-145.48;100.00;64539.38;6038102;29;20428;-89
2022/10/08 08:22:03;;;;;;;7.50;4.43;;;;;;;-145.48;100.00;64539.38;6038823;29;20040;-88
2022/10/08 08:26:05;;;;;;;8.25;4.28;;;;;;;-145.48;100.00;64539.38;6034943;29;20289;-88
2022/10/08 08:30:08;;;;;;;6.65;4.20;;;;;;;-145.48;100.00;64539.38;6031061;29;20045;-88
2022/10/08 08:34:09;;;;;;;9.00;4.60;;;;;;;-145.48;100.00;64539.38;6030716;29;20053;-87
2022/10/08 08:38:11;;;;;;;10.55;4.93;;;;;;;-145.48;100.00;64539.38;6029173;29;20065;-87
2022/10/08 08:42:11;;;;;;;;;;;;;;;-145.48;100.00;64539.38;6049319;29;20164;-88
2022/10/08 08:46:31;;;;;;;8.35;4.60;;;;;;;-145.48;100.00;64539.38;6032078;29;20378;-87
2022/10/08 08:50:44;;;;;;;9.55;4.82;;;;;;;-145.48;100.00;64539.38;6040059;29;20164;-87
2022/10/08 08:54:48;;;;;;;8.10;5.13;;;;;;;-145.48;100.00;64539.38;6036560;29;20485;-87
2022/10/08 08:58:57;;;;;;;7.50;4.57;;;;;;;-145.48;100.00;64539.38;6034999;29;20474;-90
2022/10/08 09:03:02;;;;;;;9.38;3.58;;;;;;;-145.48;100.00;64539.38;6042940;29;20100;-87
2022/10/08 09:07:06;;;;;;;8.25;4.25;;;;;;;-145.48;100.00;64539.38;6041866;29;20087;-87
2022/10/08 09:11:13;;;;;;;8.20;3.80;;;;;;;-145.48;100.00;64539.38;6040077;29;20601;-87
2022/10/08 09:15:33;;;;;;;6.82;3.28;;;;;;;-145.48;100.00;64539.38;6044076;29;20044;-87
2022/10/08 09:19:35;;;;;;;5.75;3.22;;;;;;;-145.48;100.00;64539.38;6034221;29;20045;-87
2022/10/08 09:23:36;;;;;;;7.43;3.20;;;;;;;-145.48;100.00;64539.38;6058148;29;20186;-87
2022/10/08 09:27:42;;;;;;;9.32;3.08;;;;;;;-145.48;100.00;64539.38;6043215;29;20048;-87
2022/10/08 09:31:48;;;;;;;6.95;2.80;;;;;;;-145.48;100.00;64539.38;6057011;29;20251;-88
2022/10/08 09:35:53;;;;;;;5.82;2.63;;;;;;;-145.48;100.00;64539.38;6054795;29;20195;-87
2022/10/08 09:40:19;;;;;;;6.75;3.35;;;;;;;-145.48;100.00;64539.38;6031017;29;20651;-87
2022/10/08 09:44:20;;;;;;;8.88;2.83;;;;;;;-145.48;100.00;64539.38;6044667;29;20077;-88
2022/10/08 09:48:23;;;;;;;6.03;2.83;;;;;;;-145.48;100.00;64539.38;6049256;29;20132;-87
2022/10/08 09:52:25;;;;;;;6.25;2.40;;;;;;;-145.48;100.00;64539.38;6043556;29;20052;-88
2022/10/08 09:56:30;;;;;;;6.68;2.70;;;;;;;-145.48;100.00;64539.38;6045665;29;20041;-87
2022/10/08 10:00:53;;;;;;;6.18;2.63;;;;;;;-145.48;100.00;64539.38;6044535;29;20041;-88
2022/10/08 10:04:56;;;;;;;8.15;2.20;;;;;;;-145.48;100.00;64539.38;6048652;29;20132;-87
2022/10/08 10:08:59;;;;;;;11.05;2.70;;;;;;;-145.48;100.00;64539.38;6045114;29;20156;-88
2022/10/08 10:13:31;;;;;;;5.57;2.67;;;;;;;-145.48;100.00;64539.38;6044073;29;20535;-87
2022/10/08 10:17:37;;;;;;;6.57;2.40;;;;;;;-145.48;100.00;64539.38;6039533;29;20033;-87
2022/10/08 10:21:43;;;;;;;6.53;2.25;;;;;;;-145.48;100.00;64539.38;6033043;29;20049;-87
2022/10/08 10:26:07;;;;;;;9.30;2.78;;;;;;;-145.48;100.00;64539.38;6029900;29;20530;-87
2022/10/08 10:30:18;;;;;;;7.47;2.38;;;;;;;-145.48;100.00;64539.38;6049274;29;20056;-86
2022/10/08 10:34:28;;;;;;;9.00;3.10;;;;;;;-145.48;100.00;64539.38;6040240;29;20334;-87
2022/10/08 10:38:52;;;;;;;5.17;2.40;;;;;;;-145.48;100.00;64539.38;6040453;29;20143;-87
2022/10/08 10:43:11;;;;;;;6.72;2.67;;;;;;;-145.48;100.00;64539.38;6035932;29;20048;-88
2022/10/08 10:47:18;;;;;;;6.00;2.10;;;;;;;-145.48;100.00;64539.38;6034464;29;20377;-87
2022/10/08 10:52:00;;;;;;;5.70;2.03;;;;;;;-145.48;100.00;64539.38;6029044;29;20037;-87
2022/10/08 10:56:17;;;;;;;5.30;1.90;;;;;;;-145.48;100.00;64539.38;6023428;29;20064;-87
2022/10/08 11:00:38;;;;;;;9.52;2.22;;;;;;;-145.48;100.00;64539.38;6022420;29;20085;-87
2022/10/08 11:04:53;;;;;;;4.43;1.90;;;;;;;-145.48;100.00;64539.38;6025115;29;20053;-87
2022/10/08 11:09:29;;;;;;;4.55;1.95;;;;;;;-145.48;100.00;64539.38;6020455;29;20054;-87
2022/10/08 11:13:46;;;;;;;7.13;2.10;;;;;;;-145.48;100.00;64539.38;5995971;29;20069;-87
2022/10/08 11:18:17;;;;;;;7.60;2.13;;;;;;;-145.48;100.00;64539.38;5998437;29;20089;-88
2022/10/08 11:22:23;;;;;;;7.82;1.70;;;;;;;-145.48;100.00;64539.38;5978981;29;20050;-89
2022/10/08 11:26:47;;;;;;;6.43;2.00;;;;;;;-145.48;100.00;64539.38;5995703;29;20101;-87
2022/10/08 11:31:12;;;;;;;3.25;1.40;;;;;;;-145.48;100.00;64539.38;6004929;29;20054;-88
2022/10/08 11:35:21;;;;;;;6.63;1.60;;;;;;;-145.48;100.00;64539.38;6021832;29;20065;-88
2022/10/08 11:39:45;;;;;;;3.05;1.50;;;;;;;-145.48;100.00;64539.38;6031565;29;20056;-87
2022/10/08 11:44:00;;;;;;;4.43;1.33;;;;;;;-145.48;100.00;64539.38;6027687;29;21251;-87
2022/10/08 11:48:33;;;;;;;3.95;1.08;;;;;;;-145.48;100.00;64539.38;6027832;29;20604;-88
2022/10/08 11:52:34;;;;;;;4.07;1.15;;;;;;;-145.48;100.00;64539.38;6047830;29;20083;-87
2022/10/08 11:56:42;;;;;;;;;;;;;;;-145.48;100.00;64539.38;6056012;29;20119;-88
2022/10/08 12:00:52;;;;;;;11.60;1.63;;;;;;;-145.48;100.00;64539.38;6044376;29;19935;-87
2022/10/08 12:05:15;;;;;;;3.35;0.77;;;;;;;-145.48;100.00;64539.38;6040958;29;20041;-87
2022/10/08 12:09:55;;;;;;;15.38;1.80;;;;;;;-145.48;100.00;64539.38;6048017;29;20465;-90
2022/10/08 12:14:14;;;;;;;3.05;1.10;;;;;;;-145.48;100.00;64539.38;6027053;29;20097;-89
2022/10/08 12:18:19;;;;;;;2.53;0.73;;;;;;;-145.48;100.00;64539.38;6031398;29;20168;-91
2022/10/08 12:22:30;;;;;;;5.10;1.17;;;;;;;-145.48;100.00;64539.38;6033993;29;20139;-91
2022/10/08 12:27:01;;;;;;;1.30;1.00;;;;;;;-145.48;100.00;64539.38;6018302;29;20049;-89
2022/10/08 12:31:14;;;;;;;2.85;1.10;;;;;;;-145.48;100.00;64539.38;6030365;29;20060;-90
2022/10/08 12:35:19;;;;;;;3.75;1.35;;;;;;;-145.48;100.00;64539.38;6031334;29;20185;-90
2022/10/08 12:39:33;;;;;;;2.00;1.10;;;;;;;-145.48;100.00;64539.38;6028352;29;20045;-90
2022/10/08 12:43:53;;;;;;;5.53;1.70;;;;;;;-145.48;100.00;64539.38;6029141;29;20053;-90
2022/10/08 12:47:59;;;;;;;2.85;1.35;;;;;;;-145.48;100.00;64539.38;6027787;29;20632;-90
2022/10/08 12:52:05;;;;;;;4.22;1.90;;;;;;;-145.48;100.00;64539.38;6042994;29;20056;-90
2022/10/08 12:56:21;;;;;;;4.20;1.20;;;;;;;-145.48;100.00;64539.38;6042053;29;20105;-91
2022/10/08 13:00:27;;;;;;;5.05;1.30;;;;;;;-145.48;100.00;64539.38;6044881;29;20052;-91
2022/10/08 13:04:31;;;;;;;4.20;1.58;;;;;;;-145.48;100.00;64539.38;6055378;29;20522;-90
2022/10/08 13:08:38;;;;;;;2.22;1.60;;;;;;;-145.48;100.00;64539.38;6035932;29;20556;-90
2022/10/08 13:12:42;;;;;;;3.20;1.20;;;;;;;-145.48;100.00;64539.38;6044838;29;20067;-91
2022/10/08 13:16:46;;;;;;;4.18;1.50;;;;;;;-145.48;100.00;64539.38;6034778;29;20070;-91
2022/10/08 13:21:00;;;;;;;4.38;1.40;;;;;;;-145.48;100.00;64539.38;6033630;29;20469;-91
2022/10/08 13:25:03;;;;;;;2.17;1.10;;;;;;;-145.48;100.00;64539.38;6047917;29;20112;-91
2022/10/08 13:29:16;;;;;;;3.35;1.00;;;;;;;-145.48;100.00;64539.38;6035584;29;20616;-91
2022/10/08 13:33:20;;;;;;;2.35;1.00;;;;;;;-145.48;100.00;64539.38;6035626;29;20488;-91
2022/10/08 13:37:20;;;;;;;3.47;1.00;;;;;;;-145.48;100.00;64539.38;6043109;29;20120;-89
2022/10/08 13:41:22;;;;;;;1.20;0.73;;;;;;;-145.48;100.00;64539.38;6031696;29;20041;-89
2022/10/08 13:45:25;;;;;;;5.25;1.17;;;;;;;-145.48;100.00;64539.38;6040164;29;20045;-89
2022/10/08 13:49:32;;;;;;;3.22;0.80;;;;;;;-145.48;100.00;64539.38;6035038;29;20042;-89
2022/10/08 13:53:32;;;;;;;3.70;0.90;;;;;;;-145.48;100.00;64539.38;6042564;29;20041;-89
2022/10/08 13:57:32;;;;;;;4.50;0.87;;;;;;;-145.48;100.00;64539.38;6042078;29;20281;-89
2022/10/08 14:01:34;;;;;;;2.47;0.90;;;;;;;-145.48;100.00;64539.38;6038584;29;20492;-88
2022/10/08 14:05:37;;;;;;;;;;;;;;;-145.48;100.00;64539.38;6032499;29;20151;-88
2022/10/08 14:09:38;;;;;;;4.80;1.00;;;;;;;-145.48;100.00;64539.38;6032802;29;19952;-89
2022/10/08 14:13:38;;;;;;;3.47;0.63;;;;;;;-145.48;100.00;64539.38;6029518;29;20041;-88
2022/10/08 14:17:42;;;;;;;2.10;0.65;;;;;;;-145.48;100.00;64539.38;6034905;29;20041;-89
2022/10/08 14:21:42;;;;;;;1.02;0.50;;;;;;;-145.48;100.00;64539.38;6027469;29;20048;-88
2022/10/08 14:25:42;;;;;;;1.45;0.50;;;;;;;-145.48;100.00;64539.38;6030287;29;20056;-88
2022/10/08 14:29:42;;;;;;;1.97;0.70;;;;;;;-145.48;100.00;64539.38;6035336;29;20037;-89
2022/10/08 14:33:43;;;;;;;1.58;0.60;;;;;;;-145.48;100.00;64539.38;6041019;29;20041;-90
2022/10/08 14:37:43;;;;;;;2.35;0.52;;;;;;;-145.48;100.00;64539.38;6042721;29;20446;-88
2022/10/08 14:41:43;;;;;;;3.77;0.60;;;;;;;-145.48;100.00;64539.38;6043494;29;20041;-87
2022/10/08 14:45:43;;;;;;;2.17;0.50;;;;;;;-145.48;100.00;64539.38;6033153;29;20037;-88
2022/10/08 14:49:44;;;;;;;2.53;1.17;;;;;;;-145.48;100.00;64539.38;6028300;29;20042;-90
2022/10/08 14:53:44;;;;;;;1.23;0.82;;;;;;;-145.48;100.00;64539.38;6040837;29;20044;-89
2022/10/08 14:57:44;;;;;;;1.90;0.70;;;;;;;-145.48;100.00;64539.38;6030312;29;20037;-88
2022/10/08 15:01:53;;;;;;;1.67;0.60;;;;;;;-145.48;100.00;64539.38;6037235;29;20053;-88
2022/10/08 15:05:56;;;;;;;1.75;0.57;;;;;;;-145.48;100.00;64539.38;6040674;29;20045;-87
2022/10/08 15:09:57;;;;;;;3.92;0.80;;;;;;;-145.48;100.00;64539.38;5995007;29;1245907;-88
2022/10/08 15:13:58;;;;;;;2.38;0.70;;;;;;;-145.48;100.00;64539.38;6030762;29;20066;-88
2022/10/08 15:17:58;;;;;;;;;;;;;;;-145.48;100.00;64539.38;6031408;29;20153;-87
2022/10/08 15:21:58;;;;;;;3.50;0.80;;;;;;;-145.48;100.00;64539.38;6041538;29;19927;-88
2022/10/08 15:26:00;;;;;;;1.52;0.80;;;;;;;-145.48;100.00;64539.38;6026614;29;20052;-87
2022/10/08 15:30:01;;;;;;;1.90;0.55;;;;;;;-145.48;100.00;64539.38;6030596;29;20057;-87
2022/10/08 15:34:01;;;;;;;3.30;0.88;;;;;;;-145.48;100.00;64539.38;6033112;29;20097;-88
2022/10/08 15:38:02;;;;;;;1.85;0.70;;;;;;;-145.48;100.00;64539.38;6040201;29;20057;-87
2022/10/08 15:42:03;;;;;;;5.22;1.05;;;;;;;-145.48;100.00;64539.38;6042218;29;20052;-88
2022/10/08 15:46:10;;;;;;;1.77;0.73;;;;;;;-145.48;100.00;64539.38;6049558;29;20527;-88
2022/10/08 15:50:11;;;;;;;1.48;0.60;;;;;;;-145.48;100.00;64539.38;6035198;29;20591;-87
2022/10/08 15:54:11;;;;;;;3.45;0.70;;;;;;;-145.48;100.00;64539.38;6046559;29;20037;-87
2022/10/08 15:58:13;;;;;;;3.53;0.88;;;;;;;-145.48;100.00;64539.38;6045963;29;20060;-87
2022/10/08 16:02:34;;;;;;;3.03;0.90;;;;;;;-145.48;100.00;64539.38;6045224;29;20103;-87
2022/10/08 16:06:34;;;;;;;3.28;0.70;;;;;;;-145.48;100.00;64539.38;6043202;29;20084;-87
2022/10/08 16:10:35;;;;;;;4.18;0.95;;;;;;;-145.48;100.00;64539.38;6048545;29;20314;-86
2022/10/08 16:14:35;;;;;;;3.70;0.68;;;;;;;-145.48;100.00;64539.38;6052003;29;20072;-86
2022/10/08 16:18:36;;;;;;;1.17;0.75;;;;;;;-145.48;100.00;64539.38;6059023;29;20389;-87
2022/10/08 16:22:38;;;;;;;3.20;0.73;;;;;;;-145.48;100.00;64539.38;6032030;29;20501;-87
2022/10/08 16:26:38;;;;;;;2.55;0.80;;;;;;;-145.48;100.00;64539.38;6043637;29;20715;-87
2022/10/08 16:30:39;;;;;;;2.35;0.98;;;;;;;-145.48;100.00;64539.38;6034165;29;20045;-87
2022/10/08 16:34:39;;;;;;;2.05;0.82;;;;;;;-145.48;100.00;64539.38;6039292;29;20037;-87
2022/10/08 16:38:44;;;;;;;3.85;0.95;;;;;;;-145.48;100.00;64539.38;6042884;29;20041;-87
2022/10/08 16:42:44;;;;;;;3.87;0.90;;;;;;;-145.48;100.00;64539.38;6043419;29;20077;-87
2022/10/08 16:46:49;;;;;;;4.15;1.00;;;;;;;-145.48;100.00;64539.38;6057448;29;20060;-88
2022/10/08 16:50:50;;;;;;;2.45;0.90;;;;;;;-145.48;100.00;64539.38;6036386;29;20385;-87
2022/10/08 16:54:52;;;;;;;2.80;0.90;;;;;;;-145.48;100.00;64539.38;6037827;29;20053;-88
2022/10/08 16:58:55;;;;;;;3.22;0.77;;;;;;;-145.48;100.00;64539.38;6039102;29;20037;-87
2022/10/08 17:02:56;;;;;;;4.50;1.15;;;;;;;-145.48;100.00;64539.38;6026540;29;20573;-87
2022/10/08 17:06:58;;;;;;;2.20;0.90;;;;;;;-145.48;100.00;64539.38;6037288;29;20081;-88
2022/10/08 17:11:01;;;;;;;2.25;0.70;;;;;;;-145.48;100.00;64539.38;6042907;29;20045;-89
2022/10/08 17:15:02;;;;;;;2.95;0.70;;;;;;;-145.48;100.00;64539.38;6041254;29;20088;-89
2022/10/08 17:19:03;;;;;;;2.05;1.05;;;;;;;-145.48;100.00;64539.38;6045288;29;20052;-89
2022/10/08 17:23:03;;;;;;;3.00;0.63;;;;;;;-145.48;100.00;64539.38;6038476;29;20120;-89
2022/10/08 17:27:12;;;;;;;3.28;0.80;;;;;;;-145.48;100.00;64539.38;6047441;29;20057;-89
2022/10/08 17:31:13;;;;;;;1.55;0.85;;;;;;;-145.48;100.00;64539.38;6049344;29;20052;-90
2022/10/08 17:35:15;;;;;;;2.80;0.90;;;;;;;-145.48;100.00;64539.38;6040870;29;20052;-91
2022/10/08 17:39:15;;;;;;;2.13;1.00;;;;;;;-145.48;100.00;64539.38;6050101;29;20244;-91
2022/10/08 17:43:15;;;;;;;7.47;1.30;;;;;;;-145.48;100.00;64539.38;6027855;29;20301;-91
2022/10/08 17:47:18;;;;;;;2.33;0.93;;;;;;;-145.48;100.00;64539.38;6039507;29;20373;-91
2022/10/08 17:51:21;;;;;;;2.45;0.90;;;;;;;-145.48;100.00;64539.38;6041820;29;20046;-90
2022/10/08 17:55:21;;;;;;;3.15;1.08;;;;;;;-145.48;100.00;64539.38;6048000;29;20077;-90
2022/10/08 17:59:23;;;;;;;4.40;1.10;;;;;;;-145.48;100.00;64539.38;6038615;29;20108;-90
2022/10/08 18:03:23;;;;;;;9.05;1.25;;;;;;;-145.48;100.00;64539.38;6034184;29;20049;-90
2022/10/08 18:07:24;;;;;;;2.92;1.10;;;;;;;-145.48;100.00;64539.38;6037388;29;20144;-90
2022/10/08 18:11:25;;;;;;;3.70;1.10;;;;;;;-145.48;100.00;64539.38;6054174;29;20035;-91
2022/10/08 18:15:26;;;;;;;1.55;1.00;;;;;;;-145.48;100.00;64539.38;6035725;29;20159;-90
2022/10/08 18:19:26;;;;;;;4.17;1.13;;;;;;;-145.48;100.00;64539.38;6037964;29;20542;-91
2022/10/08 18:23:28;;;;;;;3.35;1.30;;;;;;;-145.48;100.00;64539.38;6037089;29;20700;-91
2022/10/08 18:27:30;;;;;;;2.50;1.00;;;;;;;-145.48;100.00;64539.38;6039062;29;20045;-90
2022/10/08 18:31:32;;;;;;;3.58;1.15;;;;;;;-145.48;100.00;64539.38;6039144;29;20084;-90
2022/10/08 18:35:33;;;;;;;3.35;1.20;;;;;;;-145.48;100.00;64539.38;6035745;29;20370;-90